Have a Safe July 4th! 

Flight Track Log - Related Links

Times and Time Zones

All times are in EDT time to prevent confusion due to time zone crossing. See the N225SB flight status page for this flight to view local times or setup timezone preferences in your user account.

Time Position Orientation Groundspeed Altitude Reporting Facility
EDT Latitude Longitude Course Direction KTS MPH feet Rate Location/Type
Sun 06:01:09 AM 33.8333 -84.4833 12° North 205 236 3,700  Level Atlanta TRACON
Sun 06:02:15 AM 33.9000 -84.4667 12° North 222 255 6,900 2,875 Climbing Atlanta TRACON
Sun 06:03:33 AM 33.9833 -84.4622 14° North 233 268 10,600 2,391 Climbing Atlanta Center
Sun 06:04:33 AM 34.0461 -84.4550 North 228 262 12,400 1,700 Climbing Atlanta Center
Sun 06:05:33 AM 34.1150 -84.4203 23° Northeast 240 276 14,000 1,600 Climbing Atlanta Center
Sun 06:06:33 AM 34.1925 -84.3728 27° Northeast 281 323 15,600 1,550 Climbing Atlanta Center
Sun 06:07:33 AM 34.2761 -84.3153 30° Northeast 327 376 17,100 1,350 Climbing Atlanta Center
Sun 06:08:33 AM 34.3492 -84.2553 34° Northeast 347 399 18,300 1,400 Climbing Atlanta Center
Sun 06:09:33 AM 34.4369 -84.1822 34° Northeast 365 420 19,900 1,550 Climbing Atlanta Center
Sun 06:10:33 AM 34.5206 -84.1144 34° Northeast 365 420 21,400 1,300 Climbing Atlanta Center
Sun 06:11:33 AM 34.6103 -84.0414 34° Northeast 377 434 22,500 1,050 Climbing Atlanta Center
Sun 06:12:33 AM 34.6981 -83.9681 34° Northeast 377 434 23,500 1,000 Climbing Atlanta Center
Sun 06:13:33 AM 34.7875 -83.8922 35° Northeast 377 434 24,500 1,050 Climbing Atlanta Center
Sun 06:14:33 AM 34.8897 -83.8058 35° Northeast 390 449 25,600 1,050 Climbing Atlanta Center
Sun 06:15:33 AM 34.9708 -83.7372 35° Northeast 395 455 26,600 950 Climbing Atlanta Center
Sun 06:16:33 AM 35.0625 -83.6608 34° Northeast 395 455 27,500 950 Climbing Atlanta Center
Sun 06:17:33 AM 35.1519 -83.5867 34° Northeast 395 455 28,500 1,000 Climbing Atlanta Center
Sun 06:18:33 AM 35.2436 -83.5097 34° Northeast 395 455 29,500 1,050 Climbing Atlanta Center
Sun 06:19:33 AM 35.3308 -83.4353 35° Northeast 390 449 30,600 1,000 Climbing Atlanta Center
Sun 06:20:33 AM 35.4181 -83.3608 35° Northeast 390 449 31,500 750 Climbing Atlanta Center
Sun 06:21:33 AM 35.5031 -83.2861 36° Northeast 384 442 32,100 600 Climbing Atlanta Center
Sun 06:22:33 AM 35.6008 -83.2086 33° Northeast 379 436 32,700 650 Climbing Atlanta Center
Sun 06:23:33 AM 35.6878 -83.1311 36° Northeast 380 437 33,400 650 Climbing Atlanta Center
Sun 06:24:33 AM 35.7747 -83.0558 35° Northeast 380 437 34,000 600 Climbing Atlanta Center
Sun 06:25:33 AM 35.8639 -82.9806 34° Northeast 380 437 34,600 600 Climbing Atlanta Center
Sun 06:26:33 AM 35.9489 -82.9075 35° Northeast 380 437 35,200 650 Climbing Atlanta Center
Sun 06:27:33 AM 36.0336 -82.8319 36° Northeast 374 430 35,900 700 Climbing Atlanta Center
Sun 06:28:33 AM 36.1206 -82.7586 34° Northeast 379 436 36,600 600 Climbing Atlanta Center
Sun 06:29:33 AM 36.2050 -82.6828 36° Northeast 379 436 37,100 500 Climbing Atlanta Center
Sun 06:30:33 AM 36.2897 -82.6067 36° Northeast 379 436 37,600 500 Climbing Atlanta Center
Sun 06:31:33 AM 36.3764 -82.5328 34° Northeast 379 436 38,100 500 Climbing Atlanta Center
Sun 06:32:33 AM 36.4611 -82.4564 36° Northeast 379 436 38,600 450 Climbing Atlanta Center
Sun 06:33:33 AM 36.5475 -82.3797 35° Northeast 379 436 39,000 150 Climbing Atlanta Center
Sun 06:35:13 AM 36.6908 -82.2572 34° Northeast 384 442 39,000  Level Indianapolis Center
Sun 06:36:13 AM 36.7792 -82.1781 36° Northeast 390 449 39,000  Level Indianapolis Center
Sun 06:37:13 AM 36.8703 -82.1000 34° Northeast 395 455 39,000 100 Level Indianapolis Center
Sun 06:38:13 AM 36.9597 -82.0214 35° Northeast 392 451 39,200 347 Climbing Indianapolis Center
Sun 06:39:14 AM 37.0467 -81.9433 36° Northeast 386 444 39,700 496 Climbing Indianapolis Center
Sun 06:40:14 AM 37.1317 -81.8681 35° Northeast 377 434 40,200 545 Climbing Indianapolis Center
Sun 06:41:15 AM 37.2153 -81.7931 36° Northeast 371 427 40,800 397 Climbing Indianapolis Center
Sun 06:42:15 AM 37.2978 -81.7189 36° Northeast 365 420 41,000 100 Climbing Indianapolis Center
Sun 06:43:15 AM 37.3808 -81.6439 36° Northeast 366 421 41,000  Level Indianapolis Center
Sun 06:44:16 AM 37.4661 -81.5656 36° Northeast 375 432 41,000  Level Indianapolis Center
Sun 06:45:16 AM 37.5517 -81.4875 36° Northeast 381 438 41,000  Level Indianapolis Center
Sun 06:46:16 AM 37.6369 -81.4111 35° Northeast 386 444 41,000  Level Indianapolis Center
Sun 06:47:17 AM 37.7228 -81.3322 36° Northeast 390 449 41,000  Level Indianapolis Center
Sun 06:48:17 AM 37.8089 -81.2536 36° Northeast 391 450 41,000  Level Indianapolis Center
Sun 06:49:18 AM 37.9092 -81.1597 36° Northeast 393 452 41,000  Level Indianapolis Center
Sun 06:50:18 AM 37.9994 -81.0778 36° Northeast 399 459 41,000  Level Indianapolis Center
Sun 06:51:19 AM 38.0878 -80.9950 36° Northeast 397 457 41,000  Level Indianapolis Center
Sun 06:52:19 AM 38.1767 -80.9117 36° Northeast 398 458 41,000  Level Indianapolis Center
Sun 06:53:20 AM 38.2650 -80.8292 36° Northeast 397 457 41,000  Level Indianapolis Center
Sun 06:54:20 AM 38.3550 -80.7453 36° Northeast 400 460 41,000  Level Indianapolis Center
Sun 06:55:21 AM 38.4433 -80.6633 36° Northeast 397 457 41,000  Level Indianapolis Center
Sun 06:56:21 AM 38.5319 -80.5781 37° Northeast 399 459 41,000  Level Indianapolis Center
Sun 06:57:22 AM 38.6219 -80.4939 36° Northeast 401 461 41,000  Level Indianapolis Center
Sun 06:58:22 AM 38.7125 -80.4092 36° Northeast 404 465 41,000  Level Indianapolis Center
Sun 06:59:23 AM 38.8033 -80.3228 37° Northeast 407 468 41,000  Level Indianapolis Center
Sun 07:00:23 AM 38.8919 -80.2386 36° Northeast 402 463 41,000  Level Indianapolis Center
Sun 07:01:24 AM 38.9806 -80.1519 37° Northeast 401 461 41,000  Level Indianapolis Center
Sun 07:02:25 AM 39.0819 -80.0564 36° Northeast 404 465 41,000  Level Indianapolis Center
Sun 07:03:25 AM 39.1608 -79.9789 37° Northeast 404 465 41,000  Level Indianapolis Center
Sun 07:04:15 AM 39.2542 -79.8942 35° Northeast 400 460 41,000  Level Cleveland Center
Sun 07:05:15 AM 39.3433 -79.8075 37° Northeast 400 460 41,000  Level Cleveland Center
Sun 07:06:15 AM 39.4344 -79.7178 37° Northeast 407 468 41,000  Level Cleveland Center
Sun 07:07:15 AM 39.5275 -79.6303 36° Northeast 407 468 41,000  Level Cleveland Center
Sun 07:08:15 AM 39.6206 -79.5375 38° Northeast 407 468 41,000  Level Cleveland Center
Sun 07:09:15 AM 39.7133 -79.4469 37° Northeast 407 468 41,000  Level Cleveland Center
Sun 07:10:15 AM 39.8042 -79.3564 37° Northeast 407 468 41,000  Level Cleveland Center
Sun 07:11:15 AM 39.8969 -79.2653 37° Northeast 407 468 41,000  Level Cleveland Center
Sun 07:12:15 AM 39.9814 -79.1797 38° Northeast 414 476 41,000  Level Cleveland Center
Sun 07:13:15 AM 40.0781 -79.0828 37° Northeast 414 476 41,000  Level Cleveland Center
Sun 07:14:15 AM 40.1708 -78.9908 37° Northeast 409 471 41,000  Level Cleveland Center
Sun 07:15:15 AM 40.2611 -78.8964 39° Northeast 414 476 41,000  Level Cleveland Center
Sun 07:16:15 AM 40.3536 -78.8067 36° Northeast 414 476 41,000  Level Cleveland Center
Sun 07:17:15 AM 40.4458 -78.7142 37° Northeast 414 476 41,000  Level Cleveland Center
Sun 07:18:15 AM 40.5361 -78.6217 38° Northeast 414 476 41,000  Level Cleveland Center
Sun 07:19:15 AM 40.6303 -78.5283 37° Northeast 414 476 41,000 -200 Level Cleveland Center
Sun 07:21:15 AM 40.8111 -78.3392 38° Northeast 421 484 40,400 -500 Descending New York Center
Sun 07:22:15 AM 40.8983 -78.2472 39° Northeast 426 490 39,500 -800 Descending New York Center
Sun 07:23:15 AM 40.9861 -78.1439 42° Northeast 426 490 38,800 -950 Descending New York Center
Sun 07:24:15 AM 41.0714 -78.0431 42° Northeast 416 479 37,600 -1,150 Descending New York Center
Sun 07:25:15 AM 41.1589 -77.9422 41° Northeast 411 473 36,500 -1,350 Descending New York Center
Sun 07:26:15 AM 41.2439 -77.8436 41° Northeast 406 467 34,900 -1,500 Descending New York Center
Sun 07:27:15 AM 41.3269 -77.7472 41° Northeast 406 467 33,500 -1,400 Descending New York Center
Sun 07:28:15 AM 41.4186 -77.6406 41° Northeast 411 473 32,100 -1,550 Descending New York Center
Sun 07:29:15 AM 41.5144 -77.5283 41° Northeast 416 479 30,400 -1,650 Descending New York Center
Sun 07:30:15 AM 41.6061 -77.4211 41° Northeast 426 490 28,800 -1,600 Descending New York Center
Sun 07:31:15 AM 41.6975 -77.3106 42° Northeast 426 490 27,200 -1,600 Descending New York Center
Sun 07:32:15 AM 41.7889 -77.2000 42° Northeast 426 490 25,600 -1,600 Descending New York Center
Sun 07:33:15 AM 41.8803 -77.0889 42° Northeast 432 497 24,000 -1,550 Descending New York Center
Sun 07:34:15 AM 41.9622 -76.9936 41° Northeast 432 497 22,500 -1,600 Descending New York Center
Sun 07:35:15 AM 42.0603 -76.8742 42° Northeast 432 497 20,800 -1,988 Descending New York Center
Sun 07:37:04 AM 42.2103 -76.6900 42° Northeast 423 487 16,900 -2,036 Descending Boston Center
Sun 07:38:03 AM 42.2778 -76.6106 41° Northeast 382 440 15,100 -1,563 Descending Boston Center
Sun 07:39:03 AM 42.3478 -76.5225 43° Northeast 352 405 13,800 -1,376 Descending Boston Center
Sun 07:39:52 AM 42.4086 -76.4533 40° Northeast 333 383 12,600 -1,180 Descending Boston Center
Sun 07:40:04 AM 42.4175 -76.4397 49° Northeast 337 388 12,600 -667 Level Boston Center
Sun 07:40:10 AM 42.4325 -76.4294 27° Northeast 330 380 12,400 -885 Descending Boston Center
Sun 07:41:05 AM 42.4808 -76.3594 47° Northeast 319 367 11,700 -896 Descending Boston Center
Sun 07:41:17 AM 42.5047 -76.3328 39° Northeast 319 367 11,400 -712 Descending Boston Center
Sun 07:42:04 AM 42.5461 -76.2789 44° Northeast 319 367 11,000 -387 Descending Boston Center
Sun 07:42:19 AM 42.5678 -76.2547 39° Northeast 308 354 11,000 -98 Level Boston Center
Sun 07:43:05 AM 42.6031 -76.1950 51° Northeast 306 352 10,900 -545 Descending Boston Center
Sun 07:43:14 AM 42.6242 -76.1878 14° North 294 338 10,500 -1,448 Descending Boston Center
Sun 07:44:03 AM 42.6661 -76.1197 50° Northeast 301 346 9,500 -1,475 Descending Boston Center
Sun 07:44:15 AM 42.6872 -76.1039 29° Northeast 307 353 9,000 -1,672 Descending Boston Center
Sun 07:45:04 AM 42.7267 -76.0442 48° Northeast 296 341 7,800 -1,731 Descending Boston Center
Sun 07:45:07 AM 42.7414 -76.0392 14° North 288 331 7,500 -814 Descending Boston Center
Sun 07:46:03 AM 42.7811 -75.9708 52° Northeast 281 323 7,000 -484 Descending Boston Center
Sun 07:46:09 AM 42.7958 -75.9689 North 267 307 7,000  Level Boston Center
Sun 07:47:05 AM 42.8356 -75.9003 52° Northeast 268 308 7,000  Level Boston Center
Sun 07:47:08 AM 42.8461 -75.8981 North 264 304 7,000  Level Boston Center
Sun 07:48:03 AM 42.8694 -75.8086 70° East 268 308 7,000 -98 Level Boston Center
Sun 07:48:09 AM 42.8719 -75.7975 73° East 291 335 6,900 -700 Descending Boston Center
Sun 07:49:03 AM 42.8953 -75.7136 69° East 268 308 6,300 -900 Descending Boston Center
Sun 07:49:09 AM 42.8978 -75.6969 78° East 282 325 6,000 -1,600 Descending Boston Center
Sun 07:50:03 AM 42.9153 -75.5900 77° East 285 328 4,700 -1,429 Descending Boston Center
Sun 07:50:12 AM 42.9236 -75.5961 332° Northwest 267 307 4,500 -700 Descending Boston Center
Sun 07:51:03 AM 42.9425 -75.5119 73° East 260 299 4,000 -500 Descending Boston Center
Sun 07:51:12 AM 42.9428 -75.5036 87° East 244 281 4,000  Level Boston Center
Sun 07:52:04 AM 42.9633 -75.4364 67° East 208 239 4,000  Level Boston Center
Sun 07:52:11 AM 42.9636 -75.4250 88° East 218 251 4,000  Level Boston Center
Sun 07:53:04 AM 42.9883 -75.3581 63° Northeast 213 245 4,000  Level Boston Center
Sun 07:53:13 AM 42.9906 -75.3525 61° Northeast 220 253 4,000 -393 Level Boston Center
Sun 07:54:05 AM 43.0253 -75.2975 49° Northeast 207 238 3,600 -484 Descending Boston Center
Sun 07:54:15 AM 43.0275 -75.2889 71° East 213 245 3,500 -514 Descending Boston Center
Sun 07:55:15 AM 43.0700 -75.2569 29° Northeast 176 203 3,000 -248 Descending Boston Center
Sun 07:56:16 AM 43.1078 -75.2528 North 120 138 3,000  Level Boston Center
Sun 07:57:17 AM 43.1361 -75.2769 328° Northwest 97 112 3,000 -347 Level Boston Center
Sun 07:58:17 AM 43.1583 -75.3064 316° Northwest 111 128 2,300 -655 Descending Boston Center
Sun 07:59:16 AM 43.1806 -75.3389 313° West 125 144 1,700 -694 Descending Boston Center
Sun 08:00:18 AM 43.2047 -75.3714 316° Northwest 112 129 900 -774 Descending Boston Center
Sun 08:02:00 AM 43.2333 -75.4000 36° Northeast  Level FlightAware Approximate
Sun 08:09:00 AM 43.2338 -75.4070 36° Northeast  Level Estimated
Sun 08:10:00 AM 43.2333 -75.4000 36° Northeast  Level FlightAware Approximate

Login

Don't have an account? Register now (free) for customized features, flight alerts, and more!